Ellisboro, North Carolina
Current Conditions -  °F | °C
As of 10:35 AM on Thursday 23 Oct 2014 (Local Time) from KSIF Reporting Station
Clear Clear  
Wind Chill: 57°   Ceiling: Unl
Heat Index: 57°   Visibility: 10mi
Dew Point: 43°   Wind: 5mph
Humidity: 58%   Direction: 340°NNW
Pressure: 30.06"   Gusts: NA
Location:  36.3697°N, 79.9626°W
Report Text: KSIF 231435Z AUTO 34004KT 10SM CLR 14/06 A3006 RMK AO2 T01410060
Loading
Personal Weather Stations






























Interactive Weather Map
Tropical Storm Tracking
New forecast layout! Learn more

10-Day Weather Forecast

Advertisements
Track Severe Weather on mobile